Time;durP1;ratioP1;P1;durP2;ratioP2;P2;SDS_P1;SDS_P2;PMS_P1;PMS_P2;Temp;Humidity;BMP_temperature;BMP_pressure;BME280_temperature;BME280_humidity;BME280_pressure;Samples;Min_cycle;Max_cycle;Signal;HPM_P1;HPM_P2
2023/08/08 00:02:06;;;;;;;5.97;2.20;;;14.50;99.90;;;;;;4949944;29;20449;-89
2023/08/08 00:04:31;;;;;;;5.43;2.20;;;14.50;99.90;;;;;;4934299;29;20409;-88
2023/08/08 00:06:57;;;;;;;6.30;2.47;;;14.50;99.90;;;;;;4933913;29;20432;-88
2023/08/08 00:09:22;;;;;;;4.60;2.10;;;14.80;99.90;;;;;;4933773;29;20501;-89
2023/08/08 00:11:48;;;;;;;4.50;2.00;;;14.50;99.90;;;;;;4949932;29;20410;-89
2023/08/08 00:14:14;;;;;;;4.70;2.00;;;14.60;99.90;;;;;;4933824;29;20457;-88
2023/08/08 00:16:41;;;;;;;6.45;2.10;;;14.40;99.90;;;;;;4934061;29;20414;-89
2023/08/08 00:19:07;;;;;;;7.47;2.47;;;14.40;99.90;;;;;;4933817;29;20417;-89
2023/08/08 00:21:32;;;;;;;6.87;2.20;;;14.40;99.90;;;;;;4934009;29;21278;-88
2023/08/08 00:23:58;;;;;;;6.43;2.22;;;14.30;99.90;;;;;;4933561;29;20512;-89
2023/08/08 00:26:24;;;;;;;3.80;1.80;;;14.50;99.90;;;;;;4934040;29;20755;-89
2023/08/08 00:28:49;;;;;;;5.30;2.20;;;14.30;99.90;;;;;;4933433;29;20974;-90
2023/08/08 00:31:17;;;;;;;5.67;2.03;;;14.20;99.90;;;;;;4933731;29;20414;-88
2023/08/08 00:33:43;;;;;;;4.57;1.83;;;14.20;99.90;;;;;;4932878;29;20420;-88
2023/08/08 00:36:09;;;;;;;6.22;1.90;;;14.20;99.90;;;;;;4933086;29;20414;-88
2023/08/08 00:38:34;;;;;;;5.60;1.93;;;14.40;99.90;;;;;;4932933;29;20503;-88
2023/08/08 00:41:00;;;;;;;6.03;2.20;;;14.10;99.90;;;;;;4932658;29;20516;-88
2023/08/08 00:43:26;;;;;;;4.28;1.80;;;14.40;99.90;;;;;;4932997;29;20898;-88
2023/08/08 00:45:52;;;;;;;4.33;1.73;;;14.10;99.90;;;;;;4933042;29;20450;-88
2023/08/08 00:48:19;;;;;;;6.60;1.70;;;14.30;99.90;;;;;;4932774;29;20410;-89
2023/08/08 00:50:47;;;;;;;5.75;1.80;;;14.20;99.90;;;;;;4949659;29;20436;-89
2023/08/08 00:53:13;;;;;;;3.63;1.77;;;14.10;99.90;;;;;;4933111;29;20936;-88
2023/08/08 00:55:39;;;;;;;5.60;1.70;;;14.10;99.90;;;;;;4933357;29;20956;-88
2023/08/08 00:58:06;;;;;;;3.97;1.60;;;14.20;99.90;;;;;;4949300;29;20464;-88
2023/08/08 01:00:31;;;;;;;6.80;2.00;;;13.80;99.90;;;;;;4933249;29;20414;-90
2023/08/08 01:02:57;;;;;;;4.47;1.67;;;13.90;99.90;;;;;;4932623;29;20406;-89
2023/08/08 01:05:24;;;;;;;5.25;1.92;;;13.90;99.90;;;;;;4948786;29;20417;-89
2023/08/08 01:08:07;;;;;;;4.72;1.90;;;13.80;99.90;;;;;;4949409;29;20469;-89
2023/08/08 01:10:41;;;;;;;4.80;2.22;;;13.90;99.90;;;;;;4932987;29;20604;-88
2023/08/08 01:13:33;;;;;;;4.43;1.97;;;13.80;99.90;;;;;;4949246;29;20778;-89
2023/08/08 01:16:00;;;;;;;5.78;2.13;;;13.80;99.90;;;;;;4944514;29;20438;-88
2023/08/08 01:18:27;;;;;;;6.03;2.50;;;13.80;99.90;;;;;;4932728;29;20387;-89
2023/08/08 01:20:54;;;;;;;6.22;2.08;;;13.80;99.90;;;;;;4932823;29;20913;-89
2023/08/08 01:23:46;;;;;;;8.82;1.95;;;13.70;99.90;;;;;;4932801;29;20924;-89
2023/08/08 01:26:13;;;;;;;5.60;1.90;;;13.60;99.90;;;;;;4948423;29;20461;-88
2023/08/08 01:28:38;;;;;;;6.15;2.25;;;13.60;99.90;;;;;;4948364;29;20418;-89
2023/08/08 01:31:04;;;;;;;5.07;2.43;;;13.90;99.90;;;;;;4932567;29;20410;-88
2023/08/08 01:33:30;;;;;;;5.97;2.53;;;13.50;99.90;;;;;;4948989;29;20409;-88
2023/08/08 01:36:13;;;;;;;5.93;2.17;;;13.50;99.90;;;;;;4948216;29;20520;-88
2023/08/08 01:38:43;;;;;;;4.85;2.30;;;13.50;99.90;;;;;;4928053;29;20481;-88
2023/08/08 01:41:09;;;;;;;8.32;2.47;;;13.20;99.90;;;;;;4931306;29;20466;-90
2023/08/08 01:43:37;;;;;;;7.45;2.60;;;13.40;99.90;;;;;;4931959;29;20433;-89
2023/08/08 01:46:04;;;;;;;9.88;3.03;;;13.60;99.90;;;;;;4930853;29;20418;-88
2023/08/08 01:48:30;;;;;;;7.13;2.60;;;13.60;99.90;;;;;;4931052;29;20909;-88
2023/08/08 01:50:55;;;;;;;5.83;2.70;;;13.50;99.90;;;;;;4931903;29;20418;-87
2023/08/08 01:53:21;;;;;;;7.13;2.47;;;13.30;99.90;;;;;;4931932;29;20960;-89
2023/08/08 01:55:47;;;;;;;7.97;2.65;;;13.30;99.90;;;;;;4932540;29;20461;-89
2023/08/08 01:58:13;;;;;;;6.93;2.40;;;13.30;99.90;;;;;;4947821;29;20464;-88
2023/08/08 02:00:40;;;;;;;6.90;2.53;;;13.40;99.90;;;;;;4932663;29;20406;-88
2023/08/08 02:03:06;;;;;;;6.40;2.55;;;13.40;99.90;;;;;;4932036;29;20421;-89
2023/08/08 02:05:32;;;;;;;7.43;3.03;;;13.70;99.90;;;;;;4932621;29;20851;-89
2023/08/08 02:07:58;;;;;;;5.33;2.63;;;13.30;99.90;;;;;;4932018;29;20917;-89
2023/08/08 02:10:23;;;;;;;8.65;3.13;;;13.40;99.90;;;;;;4947697;29;20418;-88
2023/08/08 02:12:49;;;;;;;7.63;2.90;;;13.30;99.90;;;;;;4931845;28;20884;-89
2023/08/08 02:15:14;;;;;;;6.43;2.53;;;13.60;99.90;;;;;;4930988;29;20438;-88
2023/08/08 02:17:40;;;;;;;6.10;2.40;;;13.40;99.90;;;;;;4931951;29;20418;-88
2023/08/08 02:20:07;;;;;;;5.55;2.47;;;13.40;99.90;;;;;;4931452;29;20413;-89
2023/08/08 02:22:33;;;;;;;7.40;2.67;;;13.50;99.90;;;;;;4932122;29;20967;-89
2023/08/08 02:24:58;;;;;;;10.15;3.47;;;13.60;99.90;;;;;;4931370;29;20410;-87
2023/08/08 02:27:24;;;;;;;8.95;3.80;;;14.00;99.90;;;;;;4930645;29;20718;-89
2023/08/08 02:29:49;;;;;;;6.30;2.87;;;13.60;99.90;;;;;;4931335;29;20477;-87
2023/08/08 02:32:15;;;;;;;6.05;3.15;;;13.60;99.90;;;;;;4930654;29;20417;-88
2023/08/08 02:34:42;;;;;;;8.67;3.07;;;13.60;99.90;;;;;;4931158;29;20480;-87
2023/08/08 02:37:08;;;;;;;6.25;3.13;;;13.80;99.90;;;;;;4947129;29;20406;-88
2023/08/08 02:39:34;;;;;;;8.17;2.97;;;13.60;99.90;;;;;;4931157;29;20470;-89
2023/08/08 02:41:59;;;;;;;8.82;3.10;;;13.50;99.90;;;;;;4931279;29;20417;-88
2023/08/08 02:44:25;;;;;;;7.83;2.87;;;13.60;99.90;;;;;;4922288;29;20419;-89
2023/08/08 02:46:50;;;;;;;4.93;1.60;;;13.60;99.90;;;;;;4912313;29;20427;-87
2023/08/08 02:49:16;;;;;;;4.73;1.27;;;14.00;99.90;;;;;;4911977;29;20489;-88
2023/08/08 02:51:42;;;;;;;6.68;1.35;;;14.10;99.90;;;;;;4912556;29;20416;-87
2023/08/08 02:54:07;;;;;;;5.60;1.53;;;13.40;99.90;;;;;;4911812;29;20446;-88
2023/08/08 02:56:33;;;;;;;6.07;1.87;;;13.70;99.90;;;;;;4912158;29;20990;-89
2023/08/08 02:58:58;;;;;;;6.03;2.10;;;13.60;99.90;;;;;;4911777;29;20439;-88
2023/08/08 03:01:24;;;;;;;5.60;2.00;;;13.60;99.90;;;;;;4911915;29;20459;-89
2023/08/08 03:03:50;;;;;;;5.20;1.70;;;13.60;99.90;;;;;;4912058;29;20442;-88
2023/08/08 03:06:15;;;;;;;5.10;2.23;;;13.60;99.90;;;;;;4911727;29;20494;-89
2023/08/08 03:08:41;;;;;;;6.38;2.58;;;13.60;99.90;;;;;;4912484;29;20411;-88
2023/08/08 03:11:07;;;;;;;7.78;2.28;;;13.60;99.90;;;;;;4911847;29;20422;-89
2023/08/08 03:13:33;;;;;;;6.13;1.80;;;13.60;99.90;;;;;;4927747;29;20504;-89
2023/08/08 03:15:58;;;;;;;5.75;1.90;;;13.60;99.90;;;;;;4911529;29;20515;-88
2023/08/08 03:18:25;;;;;;;4.87;2.00;;;13.60;99.90;;;;;;4911525;29;20846;-87
2023/08/08 03:20:52;;;;;;;5.35;2.22;;;13.50;99.90;;;;;;4927424;29;20408;-89
2023/08/08 03:23:18;;;;;;;5.50;2.30;;;13.50;99.90;;;;;;4912045;29;20470;-88
2023/08/08 03:25:43;;;;;;;6.33;1.90;;;13.50;99.90;;;;;;4912057;29;20439;-88
2023/08/08 03:28:09;;;;;;;4.35;2.13;;;13.40;99.90;;;;;;4926967;29;20977;-88
2023/08/08 03:30:37;;;;;;;7.63;2.20;;;13.40;99.90;;;;;;4911667;29;20423;-88
2023/08/08 03:33:04;;;;;;;7.28;1.90;;;13.40;99.90;;;;;;4911176;29;20427;-87
2023/08/08 03:35:30;;;;;;;6.00;2.00;;;13.30;99.90;;;;;;4911586;29;21083;-88
2023/08/08 03:37:55;;;;;;;6.20;2.25;;;13.30;99.90;;;;;;4911582;29;20416;-89
2023/08/08 03:40:21;;;;;;;5.93;2.70;;;13.20;99.90;;;;;;4927420;29;20415;-88
2023/08/08 03:42:46;;;;;;;6.60;2.50;;;13.40;99.90;;;;;;4911881;29;20447;-88
2023/08/08 03:45:12;;;;;;;5.97;1.90;;;13.20;99.90;;;;;;4911163;29;20416;-88
2023/08/08 03:47:38;;;;;;;5.27;2.10;;;13.20;99.90;;;;;;4911368;29;20499;-89
2023/08/08 03:50:05;;;;;;;4.05;1.58;;;13.20;99.90;;;;;;4911265;29;20858;-89
2023/08/08 03:52:31;;;;;;;6.47;1.60;;;13.20;99.90;;;;;;4911943;29;20403;-88
2023/08/08 03:54:56;;;;;;;4.37;1.80;;;13.50;99.90;;;;;;4911950;29;20446;-88
2023/08/08 03:57:22;;;;;;;5.50;1.53;;;13.30;99.90;;;;;;4912353;29;20427;-90
2023/08/08 03:59:48;;;;;;;5.65;1.63;;;13.60;99.90;;;;;;4911913;29;20459;-90
2023/08/08 04:02:13;;;;;;;4.50;1.80;;;13.20;99.90;;;;;;4912009;29;20718;-90
2023/08/08 04:04:39;;;;;;;5.47;1.80;;;13.20;99.90;;;;;;4912612;29;20407;-89
2023/08/08 04:07:05;;;;;;;6.03;1.90;;;13.10;99.90;;;;;;4911907;29;20418;-89
2023/08/08 04:09:31;;;;;;;5.97;1.90;;;13.10;99.90;;;;;;4912075;29;20538;-90
2023/08/08 04:11:56;;;;;;;6.00;1.70;;;13.10;99.90;;;;;;4911644;29;20419;-89
2023/08/08 04:14:22;;;;;;;6.18;2.05;;;13.10;99.90;;;;;;4912262;29;20992;-89
2023/08/08 04:16:48;;;;;;;6.57;1.90;;;13.30;99.90;;;;;;4912110;29;20475;-89
2023/08/08 04:19:13;;;;;;;5.95;1.95;;;13.00;99.90;;;;;;4911972;29;20411;-89
2023/08/08 04:21:39;;;;;;;6.97;2.20;;;13.00;99.90;;;;;;4920182;29;20439;-89
2023/08/08 04:24:07;;;;;;;6.55;2.00;;;13.00;99.90;;;;;;4927201;29;20503;-91
2023/08/08 04:26:33;;;;;;;7.85;2.08;;;13.00;99.90;;;;;;4927790;29;20919;-89
2023/08/08 04:28:59;;;;;;;6.47;2.30;;;13.00;99.90;;;;;;4910947;29;20416;-90
2023/08/08 04:31:25;;;;;;;9.33;2.17;;;13.00;99.90;;;;;;4927907;29;20898;-90
2023/08/08 04:33:58;;;;;;;5.95;1.90;;;13.10;99.90;;;;;;4927425;29;20458;-91
2023/08/08 04:36:23;;;;;;;6.65;2.10;;;13.20;99.90;;;;;;4911843;29;20415;-90
2023/08/08 04:38:49;;;;;;;7.45;2.00;;;13.50;99.90;;;;;;4931416;29;20411;-89
2023/08/08 04:41:15;;;;;;;7.33;1.80;;;13.00;99.90;;;;;;4930630;29;20423;-90
2023/08/08 04:43:40;;;;;;;6.80;1.65;;;13.30;99.90;;;;;;4930488;29;20416;-91
2023/08/08 04:46:06;;;;;;;5.27;1.60;;;13.20;99.90;;;;;;4914600;29;20415;-91
2023/08/08 04:48:32;;;;;;;7.22;2.00;;;13.00;99.90;;;;;;4931042;29;20514;-90
2023/08/08 04:50:58;;;;;;;6.45;2.15;;;13.00;99.90;;;;;;4930466;29;20419;-90
2023/08/08 04:53:24;;;;;;;6.72;1.75;;;13.00;99.90;;;;;;4936124;28;20537;-89
2023/08/08 04:55:49;;;;;;;7.20;1.90;;;13.00;99.90;;;;;;4921582;29;20444;-89
2023/08/08 04:58:15;;;;;;;5.03;1.60;;;13.30;99.90;;;;;;4947268;28;20432;-89
2023/08/08 05:00:41;;;;;;;5.50;1.60;;;13.10;99.90;;;;;;4924524;29;20914;-89
2023/08/08 05:03:06;;;;;;;5.60;1.25;;;13.20;99.90;;;;;;4914003;29;20498;-89
2023/08/08 05:05:32;;;;;;;7.15;1.52;;;13.10;99.90;;;;;;4930185;29;20419;-89
2023/08/08 05:07:58;;;;;;;5.37;1.00;;;13.40;99.90;;;;;;4914465;29;20411;-88
2023/08/08 05:10:24;;;;;;;5.50;1.13;;;13.20;99.90;;;;;;4930186;29;20463;-88
2023/08/08 05:12:50;;;;;;;5.00;1.50;;;13.30;99.90;;;;;;4913958;29;20426;-89
2023/08/08 05:15:15;;;;;;;5.22;1.15;;;13.40;99.90;;;;;;4914308;29;20435;-89
2023/08/08 05:17:41;;;;;;;4.93;1.20;;;13.60;99.90;;;;;;4913828;29;20411;-89
2023/08/08 05:20:08;;;;;;;6.60;1.08;;;13.60;99.90;;;;;;4929496;29;20411;-89
2023/08/08 05:22:34;;;;;;;6.00;0.80;;;13.80;99.90;;;;;;4914189;29;20430;-90
2023/08/08 05:24:59;;;;;;;5.37;1.00;;;14.10;99.90;;;;;;4914180;29;20523;-90
2023/08/08 05:27:25;;;;;;;6.13;0.80;;;14.00;99.90;;;;;;4929501;29;20423;-90
2023/08/08 05:29:51;;;;;;;5.68;0.70;;;14.00;99.90;;;;;;4913538;29;20434;-88
2023/08/08 05:32:16;;;;;;;5.77;0.97;;;14.20;99.90;;;;;;4913922;29;20994;-89
2023/08/08 05:34:43;;;;;;;5.53;1.05;;;14.20;99.90;;;;;;4913907;29;20443;-90
2023/08/08 05:37:09;;;;;;;5.70;0.80;;;14.30;99.90;;;;;;4913021;29;20926;-90
2023/08/08 05:39:35;;;;;;;4.32;0.85;;;14.80;99.90;;;;;;4913292;29;20415;-90
2023/08/08 05:42:01;;;;;;;6.47;0.95;;;14.50;99.90;;;;;;4911400;29;20419;-88
2023/08/08 05:44:26;;;;;;;5.40;0.90;;;14.60;99.90;;;;;;4912605;29;20426;-89
2023/08/08 05:46:52;;;;;;;6.73;0.90;;;14.60;99.90;;;;;;4912552;29;20425;-89
2023/08/08 05:49:18;;;;;;;5.97;0.90;;;14.60;99.90;;;;;;4911527;29;20427;-89
2023/08/08 05:51:43;;;;;;;5.13;0.90;;;14.60;99.90;;;;;;4912295;29;20411;-89
2023/08/08 05:54:11;;;;;;;6.70;0.80;;;14.70;99.90;;;;;;4912139;29;20412;-89
2023/08/08 05:56:37;;;;;;;6.07;0.90;;;15.00;99.90;;;;;;4912990;29;20527;-89
2023/08/08 05:59:03;;;;;;;4.82;0.82;;;15.20;99.90;;;;;;4913267;29;20415;-89
2023/08/08 06:01:30;;;;;;;5.15;0.60;;;15.00;99.90;;;;;;4913055;29;20921;-89
2023/08/08 06:03:58;;;;;;;6.05;1.15;;;15.10;99.90;;;;;;4928794;29;20499;-88
2023/08/08 06:06:23;;;;;;;7.85;1.15;;;15.40;99.90;;;;;;4913228;29;20459;-89
2023/08/08 06:08:49;;;;;;;6.00;0.70;;;15.40;99.90;;;;;;4913220;29;20547;-89
2023/08/08 06:11:14;;;;;;;4.97;0.73;;;15.50;99.90;;;;;;4921592;29;20413;-89
2023/08/08 06:13:40;;;;;;;5.53;0.60;;;15.60;99.90;;;;;;4932046;29;20421;-89
2023/08/08 06:16:06;;;;;;;6.28;0.47;;;15.80;99.90;;;;;;4947033;29;20516;-89
2023/08/08 06:18:36;;;;;;;3.78;0.40;;;15.90;99.90;;;;;;4931672;29;20921;-89
2023/08/08 06:21:02;;;;;;;5.05;0.40;;;15.90;99.90;;;;;;4947683;29;20436;-89
2023/08/08 06:23:27;;;;;;;5.07;0.50;;;16.00;99.90;;;;;;4932326;29;20413;-89
2023/08/08 06:25:53;;;;;;;6.95;0.80;;;16.10;99.90;;;;;;4931491;29;20422;-89
2023/08/08 06:28:19;;;;;;;4.70;0.73;;;16.20;99.90;;;;;;4931836;29;20417;-88
2023/08/08 06:30:45;;;;;;;5.00;0.50;;;16.20;99.90;;;;;;4931807;29;20777;-89
2023/08/08 06:33:11;;;;;;;6.40;0.75;;;16.30;99.90;;;;;;4931516;29;20418;-90
2023/08/08 06:35:36;;;;;;;4.90;0.80;;;16.30;99.90;;;;;;4947800;29;20971;-89
2023/08/08 06:38:03;;;;;;;6.32;0.77;;;16.40;99.90;;;;;;4947435;29;20967;-89
2023/08/08 06:40:28;;;;;;;5.50;0.40;;;16.50;99.90;;;;;;4932328;29;20488;-89
2023/08/08 06:42:55;;;;;;;6.45;0.60;;;16.60;99.90;;;;;;4931901;29;20839;-88
2023/08/08 06:45:21;;;;;;;5.18;0.55;;;16.60;99.90;;;;;;4947048;29;20421;-88
2023/08/08 06:47:47;;;;;;;5.13;0.50;;;16.60;99.90;;;;;;4931252;29;20525;-89
2023/08/08 06:50:13;;;;;;;6.97;0.70;;;16.90;99.90;;;;;;4947329;29;21087;-89
2023/08/08 06:52:38;;;;;;;5.28;0.60;;;16.70;99.90;;;;;;4947140;29;20493;-89
2023/08/08 06:55:05;;;;;;;6.27;0.80;;;16.70;99.90;;;;;;4931348;29;20505;-89
2023/08/08 06:57:34;;;;;;;5.83;1.00;;;17.00;99.90;;;;;;4947637;29;20485;-88
2023/08/08 07:00:00;;;;;;;5.05;0.47;;;17.10;99.90;;;;;;4930601;29;20414;-90
2023/08/08 07:02:26;;;;;;;4.50;0.38;;;16.90;99.90;;;;;;4931220;29;20478;-88
2023/08/08 07:04:51;;;;;;;5.60;0.60;;;17.00;99.90;;;;;;4931054;29;20817;-89
2023/08/08 07:07:17;;;;;;;4.68;0.30;;;17.00;99.90;;;;;;4931589;29;20417;-89
2023/08/08 07:09:43;;;;;;;6.10;0.43;;;17.00;99.90;;;;;;4931081;29;20687;-90
2023/08/08 07:12:09;;;;;;;5.85;0.68;;;16.90;99.90;;;;;;4947305;29;20410;-90
2023/08/08 07:14:34;;;;;;;5.20;0.43;;;16.90;99.90;;;;;;4947035;29;20434;-89
2023/08/08 07:17:02;;;;;;;4.70;0.50;;;17.20;99.90;;;;;;4946338;29;20905;-89
2023/08/08 07:19:28;;;;;;;6.28;0.50;;;17.30;99.90;;;;;;4931245;29;20424;-89
2023/08/08 07:21:53;;;;;;;4.53;0.77;;;17.40;99.90;;;;;;4931068;29;20918;-90
2023/08/08 07:24:20;;;;;;;6.30;0.70;;;17.70;99.90;;;;;;4931094;29;20426;-89
2023/08/08 07:26:46;;;;;;;6.80;0.50;;;17.60;99.90;;;;;;4946348;29;20429;-89
2023/08/08 07:29:11;;;;;;;6.37;0.63;;;17.70;99.90;;;;;;4931313;29;20461;-88
2023/08/08 07:31:37;;;;;;;4.45;0.32;;;17.60;99.90;;;;;;4931064;29;20402;-91
2023/08/08 07:34:02;;;;;;;6.23;0.67;;;17.70;99.90;;;;;;4930813;29;20873;-89
2023/08/08 07:36:28;;;;;;;3.80;0.40;;;17.60;99.90;;;;;;4931253;29;20414;-88
2023/08/08 07:38:59;;;;;;;4.60;0.50;;;17.50;99.90;;;;;;4947065;29;20497;-91
2023/08/08 07:41:26;;;;;;;6.47;0.60;;;17.50;99.90;;;;;;4947132;29;20393;-89
2023/08/08 07:43:51;;;;;;;3.60;0.43;;;17.40;99.90;;;;;;4930713;29;20417;-90
2023/08/08 07:46:17;;;;;;;5.00;0.60;;;17.30;99.90;;;;;;4930739;29;20501;-89
2023/08/08 07:48:43;;;;;;;5.03;0.60;;;17.20;99.90;;;;;;4930959;29;20505;-90
2023/08/08 07:51:08;;;;;;;4.73;0.60;;;17.20;99.90;;;;;;4946637;29;20422;-88
2023/08/08 07:53:34;;;;;;;7.05;0.50;;;17.30;99.90;;;;;;4931004;29;20517;-90
2023/08/08 07:55:59;;;;;;;5.37;0.70;;;17.40;99.90;;;;;;4930214;29;20481;-88
2023/08/08 07:58:26;;;;;;;4.38;0.40;;;17.70;99.90;;;;;;4930599;29;20422;-89
2023/08/08 08:00:53;;;;;;;6.47;0.60;;;17.60;99.90;;;;;;4946191;29;20413;-89
2023/08/08 08:03:19;;;;;;;3.63;0.30;;;17.40;99.90;;;;;;4930545;29;20449;-89
2023/08/08 08:05:45;;;;;;;4.97;0.40;;;17.50;99.90;;;;;;4930758;29;20770;-91
2023/08/08 08:08:10;;;;;;;4.87;0.40;;;17.60;99.90;;;;;;4930379;29;20406;-88
2023/08/08 08:10:36;;;;;;;4.60;0.45;;;17.40;99.90;;;;;;4930464;29;20454;-89
2023/08/08 08:13:02;;;;;;;5.60;0.50;;;17.30;99.90;;;;;;4932487;29;20429;-88
2023/08/08 08:15:28;;;;;;;5.03;0.40;;;17.40;99.90;;;;;;4934046;29;20448;-87
2023/08/08 08:17:54;;;;;;;6.60;0.50;;;17.40;99.90;;;;;;4933790;29;20773;-88
2023/08/08 08:20:20;;;;;;;6.63;0.65;;;17.40;99.90;;;;;;4934210;29;20417;-88
2023/08/08 08:22:46;;;;;;;7.10;0.60;;;17.50;99.90;;;;;;4933884;29;20461;-90
2023/08/08 08:25:12;;;;;;;6.22;0.50;;;17.50;99.90;;;;;;4949941;29;20758;-88
2023/08/08 08:27:38;;;;;;;4.75;0.63;;;17.60;99.90;;;;;;4933553;29;20429;-89
2023/08/08 08:30:06;;;;;;;5.60;0.50;;;17.70;99.90;;;;;;4949829;29;20498;-89
2023/08/08 08:32:34;;;;;;;4.88;0.40;;;17.90;99.90;;;;;;4933888;29;21008;-89
2023/08/08 08:35:06;;;;;;;4.97;0.45;;;18.20;99.90;;;;;;4933928;29;21123;-89
2023/08/08 08:37:32;;;;;;;5.88;0.43;;;18.10;99.90;;;;;;4950284;29;20416;-90
2023/08/08 08:39:58;;;;;;;4.70;0.50;;;18.10;99.90;;;;;;4933837;29;20414;-89
2023/08/08 08:42:26;;;;;;;4.82;0.70;;;18.60;99.90;;;;;;4949551;29;20412;-89
2023/08/08 08:44:54;;;;;;;3.25;0.30;;;18.50;99.90;;;;;;4933685;29;20410;-89
2023/08/08 08:47:21;;;;;;;6.38;0.40;;;18.60;99.90;;;;;;4949067;29;20418;-89
2023/08/08 08:49:47;;;;;;;4.32;0.45;;;18.30;99.90;;;;;;4949763;29;20940;-91
2023/08/08 08:52:13;;;;;;;2.92;0.20;;;18.10;99.90;;;;;;4933089;29;20760;-89
2023/08/08 08:54:39;;;;;;;2.70;0.30;;;17.60;99.90;;;;;;4933607;29;20429;-90
2023/08/08 08:57:05;;;;;;;5.07;0.40;;;17.50;99.90;;;;;;4949130;29;20968;-89
2023/08/08 08:59:31;;;;;;;3.20;0.50;;;17.70;99.90;;;;;;4933316;29;20433;-89
2023/08/08 09:01:57;;;;;;;4.13;0.30;;;17.90;99.90;;;;;;4933300;29;20817;-89
2023/08/08 09:04:23;;;;;;;5.72;0.50;;;18.00;99.90;;;;;;4932765;29;20422;-88
2023/08/08 09:06:50;;;;;;;3.85;0.50;;;18.60;99.90;;;;;;4933246;29;20416;-90
2023/08/08 09:09:16;;;;;;;3.70;0.40;;;18.50;99.90;;;;;;4949233;29;20428;-89
2023/08/08 09:11:47;;;;;;;3.30;0.40;;;18.80;99.90;;;;;;4933400;29;20410;-89
2023/08/08 09:14:20;;;;;;;3.70;0.30;;;18.90;99.90;;;;;;4933263;29;20418;-88
2023/08/08 09:16:47;;;;;;;3.28;0.40;;;19.00;99.90;;;;;;4933410;29;20425;-88
2023/08/08 09:19:14;;;;;;;3.43;0.30;;;19.20;99.90;;;;;;4933141;29;20420;-89
2023/08/08 09:21:40;;;;;;;4.97;0.50;;;19.60;99.90;;;;;;4932560;29;20457;-88
2023/08/08 09:24:06;;;;;;;4.45;0.45;;;19.60;99.90;;;;;;4948430;28;20469;-89
2023/08/08 09:26:32;;;;;;;3.80;0.30;;;19.40;99.90;;;;;;4932469;29;20502;-90
2023/08/08 09:28:58;;;;;;;4.38;0.25;;;19.10;99.90;;;;;;4948587;29;20429;-88
2023/08/08 09:31:27;;;;;;;3.43;0.30;;;19.00;99.90;;;;;;4932950;29;20418;-90
2023/08/08 09:33:59;;;;;;;3.83;0.50;;;18.70;99.90;;;;;;4933238;29;20430;-89
2023/08/08 09:36:25;;;;;;;5.13;0.60;;;18.50;99.90;;;;;;4946426;29;20510;-89
2023/08/08 09:38:52;;;;;;;5.55;0.50;;;18.50;99.90;;;;;;4931831;29;20556;-89
2023/08/08 09:41:20;;;;;;;4.40;0.45;;;18.40;99.90;;;;;;4948427;29;20413;-90
2023/08/08 09:43:47;;;;;;;5.38;0.38;;;18.50;99.90;;;;;;4948514;29;20410;-90
2023/08/08 09:46:13;;;;;;;3.53;0.38;;;18.20;99.90;;;;;;4932611;29;20416;-89
2023/08/08 09:48:40;;;;;;;4.22;0.32;;;18.30;99.90;;;;;;4932352;29;20418;-90
2023/08/08 09:51:08;;;;;;;3.07;0.30;;;17.90;99.90;;;;;;4947357;29;20553;-89
2023/08/08 09:53:34;;;;;;;2.58;0.30;;;17.60;99.90;;;;;;4931388;29;20809;-90
2023/08/08 09:56:03;;;;;;;4.15;0.60;;;17.60;99.90;;;;;;4931888;29;20779;-90
2023/08/08 09:58:29;;;;;;;4.65;0.60;;;18.00;99.90;;;;;;4931947;29;20805;-90
2023/08/08 10:00:55;;;;;;;5.43;0.50;;;17.90;99.90;;;;;;4931882;29;20402;-90
2023/08/08 10:03:22;;;;;;;3.78;0.50;;;18.40;99.90;;;;;;4932265;29;20473;-90
2023/08/08 10:05:47;;;;;;;4.80;0.73;;;18.90;99.90;;;;;;4932232;29;20773;-89
2023/08/08 10:08:15;;;;;;;4.90;0.60;;;19.10;99.90;;;;;;4947944;29;20406;-91
2023/08/08 10:10:43;;;;;;;5.35;0.50;;;19.00;99.90;;;;;;4931529;29;20496;-89
2023/08/08 10:13:10;;;;;;;4.18;0.70;;;18.80;99.90;;;;;;4931799;29;20413;-91
2023/08/08 10:15:39;;;;;;;3.80;0.40;;;19.00;99.90;;;;;;4928872;29;20447;-88
2023/08/08 10:18:06;;;;;;;4.73;0.50;;;19.20;99.90;;;;;;4961919;28;20474;-89
2023/08/08 10:20:34;;;;;;;4.35;0.50;;;19.30;99.90;;;;;;4926374;29;20483;-89
2023/08/08 10:23:02;;;;;;;5.05;0.60;;;19.10;95.80;;;;;;4928537;29;20974;-90
2023/08/08 10:25:30;;;;;;;5.00;0.40;;;18.70;91.90;;;;;;4912714;29;20494;-88
2023/08/08 10:28:10;;;;;;;4.10;0.30;;;18.70;90.30;;;;;;4928080;29;20460;-88
2023/08/08 10:30:52;;;;;;;3.75;0.50;;;18.90;94.30;;;;;;4928642;29;20443;-91
2023/08/08 10:33:39;;;;;;;4.63;0.60;;;19.50;94.80;;;;;;4928579;29;20934;-90
2023/08/08 10:36:09;;;;;;;2.83;0.30;;;20.10;90.20;;;;;;4927223;29;20452;-90
2023/08/08 10:38:50;;;;;;;2.88;0.47;;;20.50;75.20;;;;;;4928575;29;20977;-90
2023/08/08 10:41:21;;;;;;;4.20;0.60;;;20.90;72.60;;;;;;4928545;29;20424;-89
2023/08/08 10:43:56;;;;;;;4.07;0.30;;;21.10;65.70;;;;;;4912687;29;20771;-91
2023/08/08 10:46:28;;;;;;;2.70;0.37;;;21.10;62.30;;;;;;4928181;29;20439;-90
2023/08/08 10:48:59;;;;;;;2.70;0.30;;;20.90;63.20;;;;;;4912388;29;20791;-89
2023/08/08 10:51:46;;;;;;;2.55;0.30;;;20.70;68.40;;;;;;4928743;29;20404;-91
2023/08/08 10:54:27;;;;;;;2.83;0.30;;;20.20;64.00;;;;;;4927743;29;20548;-89
2023/08/08 10:56:58;;;;;;;2.90;0.30;;;20.10;70.30;;;;;;4930717;29;20423;-91
2023/08/08 10:59:37;;;;;;;3.85;0.40;;;20.40;69.00;;;;;;4928702;29;20937;-92
2023/08/08 11:02:04;;;;;;;4.55;0.40;;;20.70;68.00;;;;;;4907716;29;20513;-90
2023/08/08 11:04:32;;;;;;;3.60;0.40;;;20.90;67.20;;;;;;4927782;29;20418;-91
2023/08/08 11:06:58;;;;;;;3.70;0.30;;;21.20;67.20;;;;;;4928554;29;20418;-90
2023/08/08 11:09:26;;;;;;;4.55;0.47;;;21.10;62.20;;;;;;4912582;29;20439;-90
2023/08/08 11:11:52;;;;;;;3.70;0.50;;;20.80;61.90;;;;;;4912502;29;20872;-92
2023/08/08 11:14:20;;;;;;;4.03;0.60;;;20.30;61.30;;;;;;4912810;29;20418;-90
2023/08/08 11:16:48;;;;;;;3.78;0.32;;;20.20;63.70;;;;;;4912076;29;20412;-92
2023/08/08 11:19:15;;;;;;;3.35;0.40;;;20.40;69.60;;;;;;4911979;29;20474;-92
2023/08/08 11:21:43;;;;;;;3.45;0.38;;;20.80;69.50;;;;;;4912640;29;20435;-90
2023/08/08 11:24:09;;;;;;;3.88;0.50;;;21.20;64.10;;;;;;4912328;29;20407;-89
2023/08/08 11:26:36;;;;;;;3.90;0.43;;;21.50;61.90;;;;;;4912090;29;20494;-90
2023/08/08 11:29:04;;;;;;;2.92;0.35;;;21.40;63.80;;;;;;4927866;29;20481;-90
2023/08/08 11:31:30;;;;;;;3.22;0.25;;;21.50;63.20;;;;;;4912131;29;20482;-92
2023/08/08 11:33:56;;;;;;;3.83;0.30;;;21.90;62.20;;;;;;4911969;29;20447;-89
2023/08/08 11:36:23;;;;;;;5.10;0.30;;;21.40;60.80;;;;;;4911458;29;20522;-89
2023/08/08 11:38:50;;;;;;;4.78;0.40;;;21.40;61.80;;;;;;4912473;29;20412;-89
2023/08/08 11:41:19;;;;;;;3.03;0.20;;;21.10;61.90;;;;;;4912031;29;20418;-88
2023/08/08 11:43:46;;;;;;;3.33;0.20;;;21.00;62.80;;;;;;4912461;29;20431;-91
2023/08/08 11:46:15;;;;;;;4.22;0.30;;;20.90;62.00;;;;;;4913733;29;20506;-89
2023/08/08 11:48:41;;;;;;;3.35;0.38;;;20.60;61.70;;;;;;4915901;29;20423;-90
2023/08/08 11:51:08;;;;;;;5.28;0.43;;;20.60;61.80;;;;;;4915580;29;20426;-89
2023/08/08 11:53:35;;;;;;;4.32;0.50;;;20.20;64.70;;;;;;4915707;29;20415;-90
2023/08/08 11:56:03;;;;;;;5.18;0.70;;;19.70;75.60;;;;;;4915374;29;20436;-89
2023/08/08 11:58:30;;;;;;;3.70;0.40;;;18.90;99.90;;;;;;4922024;29;20432;-89
2023/08/08 12:00:57;;;;;;;4.93;0.70;;;18.30;99.90;;;;;;4928299;29;20410;-90
2023/08/08 12:03:25;;;;;;;10.00;0.60;;;17.90;99.90;;;;;;4934611;29;20414;-88
2023/08/08 12:05:52;;;;;;;5.38;0.70;;;18.10;99.90;;;;;;4933866;29;20448;-89
2023/08/08 12:08:19;;;;;;;6.47;0.52;;;17.70;99.90;;;;;;4934645;29;20676;-89
2023/08/08 12:10:53;;;;;;;4.20;0.40;;;18.00;99.90;;;;;;4950273;29;20936;-91
2023/08/08 12:13:22;;;;;;;5.30;0.65;;;18.50;99.90;;;;;;4934721;29;21046;-89
2023/08/08 12:15:48;;;;;;;3.60;0.20;;;19.20;99.90;;;;;;4934464;29;21281;-90
2023/08/08 12:18:18;;;;;;;3.70;0.40;;;19.50;86.60;;;;;;4934296;29;20909;-90
2023/08/08 12:20:44;;;;;;;3.88;0.40;;;19.70;80.60;;;;;;4949995;29;20437;-89
2023/08/08 12:23:11;;;;;;;3.88;0.40;;;19.60;74.20;;;;;;4933757;29;20448;-88
2023/08/08 12:25:37;;;;;;;2.67;0.22;;;19.80;76.60;;;;;;4933975;29;20724;-89
2023/08/08 12:28:03;;;;;;;4.45;0.30;;;19.80;79.90;;;;;;4933552;29;20441;-91
2023/08/08 12:30:29;;;;;;;3.55;0.60;;;19.80;74.70;;;;;;4934505;29;20920;-90
2023/08/08 12:32:54;;;;;;;4.87;0.40;;;20.00;74.70;;;;;;4933893;29;20414;-89
2023/08/08 12:35:20;;;;;;;5.75;0.43;;;19.40;80.80;;;;;;4949343;29;20775;-89
2023/08/08 12:37:46;;;;;;;6.73;0.50;;;19.20;82.60;;;;;;4934086;29;20410;-89
2023/08/08 12:40:12;;;;;;;5.88;0.50;;;19.00;86.70;;;;;;4949406;29;20413;-89
2023/08/08 12:42:38;;;;;;;6.50;0.60;;;19.30;94.30;;;;;;4934032;29;20418;-89
2023/08/08 12:45:06;;;;;;;3.93;0.30;;;20.10;99.90;;;;;;4949561;29;20410;-88
2023/08/08 12:47:32;;;;;;;3.90;0.52;;;20.80;74.80;;;;;;4949951;29;20469;-90